sensor_id;sensor_type;location;lat;lon;timestamp;P1;durP1;ratioP1;P2;durP2;ratioP2
67514;SDS011;60646;55.802;37.032;2023-06-26T00:00:14;12.38;;;6.63;;
67514;SDS011;60646;55.802;37.032;2023-06-26T00:02:40;11.20;;;6.53;;
67514;SDS011;60646;55.802;37.032;2023-06-26T00:05:06;11.82;;;6.45;;
67514;SDS011;60646;55.802;37.032;2023-06-26T00:07:32;9.52;;;5.95;;
67514;SDS011;60646;55.802;37.032;2023-06-26T00:10:05;11.27;;;5.88;;
67514;SDS011;60646;55.802;37.032;2023-06-26T00:12:32;10.30;;;5.85;;
67514;SDS011;60646;55.802;37.032;2023-06-26T00:14:59;9.55;;;6.47;;
67514;SDS011;60646;55.802;37.032;2023-06-26T00:17:26;11.43;;;6.05;;
67514;SDS011;60646;55.802;37.032;2023-06-26T00:19:51;11.82;;;5.97;;
67514;SDS011;60646;55.802;37.032;2023-06-26T00:22:18;11.45;;;6.63;;
67514;SDS011;60646;55.802;37.032;2023-06-26T00:24:44;11.63;;;6.07;;
67514;SDS011;60646;55.802;37.032;2023-06-26T00:27:11;9.80;;;6.60;;
67514;SDS011;60646;55.802;37.032;2023-06-26T00:29:36;11.20;;;6.00;;
67514;SDS011;60646;55.802;37.032;2023-06-26T00:32:04;9.82;;;6.20;;
67514;SDS011;60646;55.802;37.032;2023-06-26T00:34:33;10.15;;;6.70;;
67514;SDS011;60646;55.802;37.032;2023-06-26T00:36:59;11.15;;;6.78;;
67514;SDS011;60646;55.802;37.032;2023-06-26T00:39:26;9.35;;;5.63;;
67514;SDS011;60646;55.802;37.032;2023-06-26T00:41:51;12.60;;;6.75;;
67514;SDS011;60646;55.802;37.032;2023-06-26T00:44:20;9.60;;;5.88;;
67514;SDS011;60646;55.802;37.032;2023-06-26T00:46:46;9.60;;;5.68;;
67514;SDS011;60646;55.802;37.032;2023-06-26T00:49:12;10.98;;;5.93;;
67514;SDS011;60646;55.802;37.032;2023-06-26T00:51:39;11.05;;;6.32;;
67514;SDS011;60646;55.802;37.032;2023-06-26T00:54:05;10.50;;;6.45;;
67514;SDS011;60646;55.802;37.032;2023-06-26T00:56:32;10.73;;;6.45;;
67514;SDS011;60646;55.802;37.032;2023-06-26T00:58:58;10.45;;;6.28;;
67514;SDS011;60646;55.802;37.032;2023-06-26T01:01:26;9.15;;;5.90;;
67514;SDS011;60646;55.802;37.032;2023-06-26T01:03:53;10.52;;;6.15;;
67514;SDS011;60646;55.802;37.032;2023-06-26T01:06:22;12.45;;;6.35;;
67514;SDS011;60646;55.802;37.032;2023-06-26T01:08:51;9.98;;;5.90;;
67514;SDS011;60646;55.802;37.032;2023-06-26T01:11:18;9.60;;;5.55;;
67514;SDS011;60646;55.802;37.032;2023-06-26T01:13:44;11.60;;;6.35;;
67514;SDS011;60646;55.802;37.032;2023-06-26T01:16:11;9.93;;;6.38;;
67514;SDS011;60646;55.802;37.032;2023-06-26T01:18:38;10.73;;;6.07;;
67514;SDS011;60646;55.802;37.032;2023-06-26T01:24:18;9.07;;;5.93;;
67514;SDS011;60646;55.802;37.032;2023-06-26T01:26:53;9.43;;;6.13;;
67514;SDS011;60646;55.802;37.032;2023-06-26T01:29:19;9.93;;;6.30;;
67514;SDS011;60646;55.802;37.032;2023-06-26T01:31:48;11.40;;;6.15;;
67514;SDS011;60646;55.802;37.032;2023-06-26T01:34:16;9.07;;;5.70;;
67514;SDS011;60646;55.802;37.032;2023-06-26T01:36:44;9.82;;;6.07;;
67514;SDS011;60646;55.802;37.032;2023-06-26T01:39:15;9.55;;;5.90;;
67514;SDS011;60646;55.802;37.032;2023-06-26T01:42:00;11.98;;;6.40;;
67514;SDS011;60646;55.802;37.032;2023-06-26T01:44:27;11.93;;;6.15;;
67514;SDS011;60646;55.802;37.032;2023-06-26T01:52:49;9.48;;;6.10;;
67514;SDS011;60646;55.802;37.032;2023-06-26T01:55:23;10.13;;;6.05;;
67514;SDS011;60646;55.802;37.032;2023-06-26T01:58:09;10.57;;;6.38;;
67514;SDS011;60646;55.802;37.032;2023-06-26T02:00:36;10.10;;;6.55;;
67514;SDS011;60646;55.802;37.032;2023-06-26T02:03:02;11.52;;;6.90;;
67514;SDS011;60646;55.802;37.032;2023-06-26T02:05:30;9.63;;;6.15;;
67514;SDS011;60646;55.802;37.032;2023-06-26T02:07:58;9.32;;;5.95;;
67514;SDS011;60646;55.802;37.032;2023-06-26T02:10:24;11.20;;;6.45;;
67514;SDS011;60646;55.802;37.032;2023-06-26T02:12:50;9.60;;;6.20;;
67514;SDS011;60646;55.802;37.032;2023-06-26T02:15:16;12.55;;;6.20;;
67514;SDS011;60646;55.802;37.032;2023-06-26T02:17:42;10.32;;;6.53;;
67514;SDS011;60646;55.802;37.032;2023-06-26T02:20:08;12.40;;;6.70;;
67514;SDS011;60646;55.802;37.032;2023-06-26T02:22:36;9.50;;;6.05;;
67514;SDS011;60646;55.802;37.032;2023-06-26T02:25:02;9.95;;;6.05;;
67514;SDS011;60646;55.802;37.032;2023-06-26T02:27:30;9.77;;;6.07;;
67514;SDS011;60646;55.802;37.032;2023-06-26T02:29:55;9.13;;;6.05;;
67514;SDS011;60646;55.802;37.032;2023-06-26T02:32:21;7.70;;;5.25;;
67514;SDS011;60646;55.802;37.032;2023-06-26T02:34:49;9.68;;;5.50;;
67514;SDS011;60646;55.802;37.032;2023-06-26T02:37:17;11.23;;;5.65;;
67514;SDS011;60646;55.802;37.032;2023-06-26T02:39:44;8.40;;;5.70;;
67514;SDS011;60646;55.802;37.032;2023-06-26T02:42:10;9.20;;;5.97;;
67514;SDS011;60646;55.802;37.032;2023-06-26T02:44:35;8.52;;;6.10;;
67514;SDS011;60646;55.802;37.032;2023-06-26T02:47:02;8.63;;;5.63;;
67514;SDS011;60646;55.802;37.032;2023-06-26T02:49:28;10.05;;;6.25;;
67514;SDS011;60646;55.802;37.032;2023-06-26T02:51:54;8.52;;;5.97;;
67514;SDS011;60646;55.802;37.032;2023-06-26T02:54:26;8.43;;;5.60;;
67514;SDS011;60646;55.802;37.032;2023-06-26T02:56:56;9.73;;;6.30;;
67514;SDS011;60646;55.802;37.032;2023-06-26T02:59:41;7.75;;;5.35;;
67514;SDS011;60646;55.802;37.032;2023-06-26T03:02:08;13.98;;;6.30;;
67514;SDS011;60646;55.802;37.032;2023-06-26T03:04:41;9.30;;;5.80;;
67514;SDS011;60646;55.802;37.032;2023-06-26T03:07:11;11.32;;;6.20;;
67514;SDS011;60646;55.802;37.032;2023-06-26T03:09:39;9.20;;;6.00;;
67514;SDS011;60646;55.802;37.032;2023-06-26T03:12:06;10.18;;;5.97;;
67514;SDS011;60646;55.802;37.032;2023-06-26T03:14:33;9.30;;;5.95;;
67514;SDS011;60646;55.802;37.032;2023-06-26T03:17:00;8.55;;;5.82;;
67514;SDS011;60646;55.802;37.032;2023-06-26T03:19:30;10.65;;;5.90;;
67514;SDS011;60646;55.802;37.032;2023-06-26T03:22:25;11.18;;;5.82;;
67514;SDS011;60646;55.802;37.032;2023-06-26T03:24:51;9.20;;;5.60;;
67514;SDS011;60646;55.802;37.032;2023-06-26T03:27:17;9.13;;;6.00;;
67514;SDS011;60646;55.802;37.032;2023-06-26T03:29:44;12.65;;;6.28;;
67514;SDS011;60646;55.802;37.032;2023-06-26T03:32:10;10.77;;;6.20;;
67514;SDS011;60646;55.802;37.032;2023-06-26T03:34:55;9.98;;;6.00;;
67514;SDS011;60646;55.802;37.032;2023-06-26T03:37:21;10.35;;;6.43;;
67514;SDS011;60646;55.802;37.032;2023-06-26T03:39:49;10.30;;;6.15;;
67514;SDS011;60646;55.802;37.032;2023-06-26T03:42:14;10.82;;;6.68;;
67514;SDS011;60646;55.802;37.032;2023-06-26T03:44:40;10.95;;;6.80;;
67514;SDS011;60646;55.802;37.032;2023-06-26T03:47:06;11.80;;;6.18;;
67514;SDS011;60646;55.802;37.032;2023-06-26T03:49:32;10.20;;;6.72;;
67514;SDS011;60646;55.802;37.032;2023-06-26T03:51:57;13.40;;;7.20;;
67514;SDS011;60646;55.802;37.032;2023-06-26T03:54:23;11.75;;;6.65;;
67514;SDS011;60646;55.802;37.032;2023-06-26T03:56:49;11.18;;;6.70;;
67514;SDS011;60646;55.802;37.032;2023-06-26T03:59:15;11.15;;;6.68;;
67514;SDS011;60646;55.802;37.032;2023-06-26T04:01:42;9.88;;;6.50;;
67514;SDS011;60646;55.802;37.032;2023-06-26T04:04:08;11.30;;;6.68;;
67514;SDS011;60646;55.802;37.032;2023-06-26T04:06:34;9.88;;;6.38;;
67514;SDS011;60646;55.802;37.032;2023-06-26T04:09:00;13.60;;;6.97;;
67514;SDS011;60646;55.802;37.032;2023-06-26T04:11:26;11.88;;;7.18;;
67514;SDS011;60646;55.802;37.032;2023-06-26T04:13:52;10.15;;;6.38;;
67514;SDS011;60646;55.802;37.032;2023-06-26T04:16:18;11.60;;;6.70;;
67514;SDS011;60646;55.802;37.032;2023-06-26T04:18:44;9.25;;;5.90;;
67514;SDS011;60646;55.802;37.032;2023-06-26T04:21:11;10.50;;;6.70;;
67514;SDS011;60646;55.802;37.032;2023-06-26T04:23:38;12.85;;;7.60;;
67514;SDS011;60646;55.802;37.032;2023-06-26T04:26:05;9.05;;;6.53;;
67514;SDS011;60646;55.802;37.032;2023-06-26T04:28:32;11.40;;;6.60;;
67514;SDS011;60646;55.802;37.032;2023-06-26T04:30:59;12.43;;;6.97;;
67514;SDS011;60646;55.802;37.032;2023-06-26T04:33:25;11.90;;;6.88;;
67514;SDS011;60646;55.802;37.032;2023-06-26T04:35:52;12.07;;;6.85;;
67514;SDS011;60646;55.802;37.032;2023-06-26T04:38:19;13.25;;;6.85;;
67514;SDS011;60646;55.802;37.032;2023-06-26T04:40:45;10.25;;;6.65;;
67514;SDS011;60646;55.802;37.032;2023-06-26T04:43:11;11.27;;;7.18;;
67514;SDS011;60646;55.802;37.032;2023-06-26T04:45:37;10.13;;;6.40;;
67514;SDS011;60646;55.802;37.032;2023-06-26T04:48:03;12.57;;;6.20;;
67514;SDS011;60646;55.802;37.032;2023-06-26T04:50:30;10.27;;;6.88;;
67514;SDS011;60646;55.802;37.032;2023-06-26T04:52:56;11.70;;;6.68;;
67514;SDS011;60646;55.802;37.032;2023-06-26T04:55:23;12.43;;;7.40;;
67514;SDS011;60646;55.802;37.032;2023-06-26T04:57:50;12.45;;;6.47;;
67514;SDS011;60646;55.802;37.032;2023-06-26T05:00:16;9.43;;;6.45;;
67514;SDS011;60646;55.802;37.032;2023-06-26T05:02:42;11.38;;;6.80;;
67514;SDS011;60646;55.802;37.032;2023-06-26T05:05:08;11.23;;;6.88;;
67514;SDS011;60646;55.802;37.032;2023-06-26T05:07:34;12.73;;;7.00;;
67514;SDS011;60646;55.802;37.032;2023-06-26T05:10:00;8.73;;;6.32;;
67514;SDS011;60646;55.802;37.032;2023-06-26T05:15:10;7.63;;;5.63;;
67514;SDS011;60646;55.802;37.032;2023-06-26T05:17:36;10.93;;;5.78;;
67514;SDS011;60646;55.802;37.032;2023-06-26T05:20:02;9.23;;;5.65;;
67514;SDS011;60646;55.802;37.032;2023-06-26T05:22:29;11.10;;;5.80;;
67514;SDS011;60646;55.802;37.032;2023-06-26T05:24:55;8.90;;;5.38;;
67514;SDS011;60646;55.802;37.032;2023-06-26T05:27:24;7.15;;;4.90;;
67514;SDS011;60646;55.802;37.032;2023-06-26T05:29:50;12.38;;;6.28;;
67514;SDS011;60646;55.802;37.032;2023-06-26T05:32:17;7.15;;;5.35;;
67514;SDS011;60646;55.802;37.032;2023-06-26T05:34:47;7.28;;;5.28;;
67514;SDS011;60646;55.802;37.032;2023-06-26T05:37:21;9.43;;;5.07;;
67514;SDS011;60646;55.802;37.032;2023-06-26T05:40:06;8.43;;;5.18;;
67514;SDS011;60646;55.802;37.032;2023-06-26T05:42:33;9.60;;;5.00;;
67514;SDS011;60646;55.802;37.032;2023-06-26T05:44:59;7.30;;;5.05;;
67514;SDS011;60646;55.802;37.032;2023-06-26T05:47:26;8.57;;;4.85;;
67514;SDS011;60646;55.802;37.032;2023-06-26T05:50:10;8.98;;;4.78;;
67514;SDS011;60646;55.802;37.032;2023-06-26T05:52:37;8.73;;;4.80;;
67514;SDS011;60646;55.802;37.032;2023-06-26T05:55:22;5.43;;;4.03;;
67514;SDS011;60646;55.802;37.032;2023-06-26T06:00:35;6.20;;;3.90;;
67514;SDS011;60646;55.802;37.032;2023-06-26T06:03:20;5.68;;;3.90;;
67514;SDS011;60646;55.802;37.032;2023-06-26T06:05:46;9.82;;;3.60;;
67514;SDS011;60646;55.802;37.032;2023-06-26T06:08:11;3.92;;;3.20;;
67514;SDS011;60646;55.802;37.032;2023-06-26T06:10:37;4.57;;;3.42;;
67514;SDS011;60646;55.802;37.032;2023-06-26T06:13:03;5.30;;;3.90;;
67514;SDS011;60646;55.802;37.032;2023-06-26T06:15:29;4.20;;;2.78;;
67514;SDS011;60646;55.802;37.032;2023-06-26T06:17:55;5.78;;;3.65;;
67514;SDS011;60646;55.802;37.032;2023-06-26T06:20:20;5.07;;;3.63;;
67514;SDS011;60646;55.802;37.032;2023-06-26T06:22:46;4.63;;;3.60;;
67514;SDS011;60646;55.802;37.032;2023-06-26T06:25:14;4.72;;;3.60;;
67514;SDS011;60646;55.802;37.032;2023-06-26T06:27:40;4.43;;;3.10;;
67514;SDS011;60646;55.802;37.032;2023-06-26T06:30:06;5.25;;;3.70;;
67514;SDS011;60646;55.802;37.032;2023-06-26T06:35:36;5.38;;;3.30;;
67514;SDS011;60646;55.802;37.032;2023-06-26T06:38:01;4.28;;;3.10;;
67514;SDS011;60646;55.802;37.032;2023-06-26T06:40:27;3.72;;;3.00;;
67514;SDS011;60646;55.802;37.032;2023-06-26T06:43:30;4.55;;;3.38;;
67514;SDS011;60646;55.802;37.032;2023-06-26T06:45:55;5.40;;;2.88;;
67514;SDS011;60646;55.802;37.032;2023-06-26T06:48:40;3.70;;;2.80;;
67514;SDS011;60646;55.802;37.032;2023-06-26T06:51:06;4.32;;;3.17;;
67514;SDS011;60646;55.802;37.032;2023-06-26T06:53:50;6.47;;;4.03;;
67514;SDS011;60646;55.802;37.032;2023-06-26T06:56:16;6.88;;;4.22;;
67514;SDS011;60646;55.802;37.032;2023-06-26T06:58:41;7.72;;;4.47;;
67514;SDS011;60646;55.802;37.032;2023-06-26T07:01:11;5.93;;;4.70;;
67514;SDS011;60646;55.802;37.032;2023-06-26T07:03:39;6.63;;;4.80;;
67514;SDS011;60646;55.802;37.032;2023-06-26T07:06:05;6.90;;;4.55;;
67514;SDS011;60646;55.802;37.032;2023-06-26T07:08:31;5.25;;;4.38;;
67514;SDS011;60646;55.802;37.032;2023-06-26T07:10:57;7.10;;;5.05;;
67514;SDS011;60646;55.802;37.032;2023-06-26T07:13:23;6.15;;;4.50;;
67514;SDS011;60646;55.802;37.032;2023-06-26T07:15:49;7.78;;;4.97;;
67514;SDS011;60646;55.802;37.032;2023-06-26T07:18:33;7.00;;;4.55;;
67514;SDS011;60646;55.802;37.032;2023-06-26T07:20:59;6.20;;;4.03;;
67514;SDS011;60646;55.802;37.032;2023-06-26T07:23:24;5.07;;;3.50;;
67514;SDS011;60646;55.802;37.032;2023-06-26T07:25:50;4.45;;;3.80;;
67514;SDS011;60646;55.802;37.032;2023-06-26T07:28:34;4.00;;;3.38;;
67514;SDS011;60646;55.802;37.032;2023-06-26T07:31:00;8.43;;;3.90;;
67514;SDS011;60646;55.802;37.032;2023-06-26T07:33:25;5.05;;;2.95;;
67514;SDS011;60646;55.802;37.032;2023-06-26T07:35:51;4.65;;;3.20;;
67514;SDS011;60646;55.802;37.032;2023-06-26T07:38:36;4.28;;;3.13;;
67514;SDS011;60646;55.802;37.032;2023-06-26T07:44:42;3.83;;;3.03;;
67514;SDS011;60646;55.802;37.032;2023-06-26T07:47:29;3.75;;;3.17;;
67514;SDS011;60646;55.802;37.032;2023-06-26T07:49:55;4.28;;;3.13;;
67514;SDS011;60646;55.802;37.032;2023-06-26T07:52:20;4.03;;;2.70;;
67514;SDS011;60646;55.802;37.032;2023-06-26T07:55:23;3.90;;;2.92;;
67514;SDS011;60646;55.802;37.032;2023-06-26T07:57:51;4.90;;;3.38;;
67514;SDS011;60646;55.802;37.032;2023-06-26T08:00:35;13.48;;;3.35;;
67514;SDS011;60646;55.802;37.032;2023-06-26T08:03:01;5.40;;;3.70;;
67514;SDS011;60646;55.802;37.032;2023-06-26T08:05:45;4.10;;;3.10;;
67514;SDS011;60646;55.802;37.032;2023-06-26T08:08:30;5.25;;;4.47;;
67514;SDS011;60646;55.802;37.032;2023-06-26T08:10:56;6.88;;;5.50;;
67514;SDS011;60646;55.802;37.032;2023-06-26T08:13:22;7.35;;;3.88;;
67514;SDS011;60646;55.802;37.032;2023-06-26T08:16:24;4.10;;;3.05;;
67514;SDS011;60646;55.802;37.032;2023-06-26T08:18:50;4.10;;;3.05;;
67514;SDS011;60646;55.802;37.032;2023-06-26T08:21:16;4.78;;;3.28;;
67514;SDS011;60646;55.802;37.032;2023-06-26T08:23:42;4.70;;;3.38;;
67514;SDS011;60646;55.802;37.032;2023-06-26T08:29:12;3.50;;;2.72;;
67514;SDS011;60646;55.802;37.032;2023-06-26T08:31:56;4.90;;;3.00;;
67514;SDS011;60646;55.802;37.032;2023-06-26T08:34:22;3.28;;;2.55;;
67514;SDS011;60646;55.802;37.032;2023-06-26T08:39:35;4.95;;;2.63;;
67514;SDS011;60646;55.802;37.032;2023-06-26T08:42:19;6.50;;;3.25;;
67514;SDS011;60646;55.802;37.032;2023-06-26T08:45:04;5.25;;;2.80;;
67514;SDS011;60646;55.802;37.032;2023-06-26T08:47:33;9.23;;;3.30;;
67514;SDS011;60646;55.802;37.032;2023-06-26T08:50:07;4.97;;;3.53;;
67514;SDS011;60646;55.802;37.032;2023-06-26T08:52:36;3.75;;;3.10;;
67514;SDS011;60646;55.802;37.032;2023-06-26T08:55:26;3.85;;;2.85;;
67514;SDS011;60646;55.802;37.032;2023-06-26T08:58:12;4.15;;;2.88;;
67514;SDS011;60646;55.802;37.032;2023-06-26T09:00:39;3.70;;;3.05;;
67514;SDS011;60646;55.802;37.032;2023-06-26T09:03:06;5.35;;;2.83;;
67514;SDS011;60646;55.802;37.032;2023-06-26T09:08:17;4.70;;;2.83;;
67514;SDS011;60646;55.802;37.032;2023-06-26T09:13:58;5.90;;;3.10;;
67514;SDS011;60646;55.802;37.032;2023-06-26T09:16:56;3.92;;;3.25;;
67514;SDS011;60646;55.802;37.032;2023-06-26T09:19:22;3.70;;;2.85;;
67514;SDS011;60646;55.802;37.032;2023-06-26T09:22:11;4.68;;;2.92;;
67514;SDS011;60646;55.802;37.032;2023-06-26T09:24:40;5.70;;;3.08;;
67514;SDS011;60646;55.802;37.032;2023-06-26T09:27:07;4.47;;;3.53;;
67514;SDS011;60646;55.802;37.032;2023-06-26T09:29:53;5.75;;;3.33;;
67514;SDS011;60646;55.802;37.032;2023-06-26T09:32:38;3.97;;;2.95;;
67514;SDS011;60646;55.802;37.032;2023-06-26T09:35:04;3.65;;;2.80;;
67514;SDS011;60646;55.802;37.032;2023-06-26T09:37:32;3.25;;;2.75;;
67514;SDS011;60646;55.802;37.032;2023-06-26T09:39:59;4.55;;;3.13;;
67514;SDS011;60646;55.802;37.032;2023-06-26T09:42:26;3.42;;;2.70;;
67514;SDS011;60646;55.802;37.032;2023-06-26T09:44:52;4.05;;;3.10;;
67514;SDS011;60646;55.802;37.032;2023-06-26T09:47:19;4.28;;;2.63;;
67514;SDS011;60646;55.802;37.032;2023-06-26T09:49:46;4.28;;;2.92;;
67514;SDS011;60646;55.802;37.032;2023-06-26T09:52:33;6.18;;;3.90;;
67514;SDS011;60646;55.802;37.032;2023-06-26T09:55:10;3.53;;;2.80;;
67514;SDS011;60646;55.802;37.032;2023-06-26T09:57:37;3.80;;;3.10;;
67514;SDS011;60646;55.802;37.032;2023-06-26T10:00:03;4.28;;;3.17;;
67514;SDS011;60646;55.802;37.032;2023-06-26T10:02:38;4.00;;;2.92;;
67514;SDS011;60646;55.802;37.032;2023-06-26T10:05:04;7.63;;;3.20;;
67514;SDS011;60646;55.802;37.032;2023-06-26T10:07:48;3.70;;;3.00;;
67514;SDS011;60646;55.802;37.032;2023-06-26T10:13:04;5.03;;;3.05;;
67514;SDS011;60646;55.802;37.032;2023-06-26T10:15:34;4.30;;;2.63;;
67514;SDS011;60646;55.802;37.032;2023-06-26T10:18:01;3.78;;;2.58;;
67514;SDS011;60646;55.802;37.032;2023-06-26T10:20:27;3.90;;;2.80;;
67514;SDS011;60646;55.802;37.032;2023-06-26T10:22:54;4.78;;;3.38;;
67514;SDS011;60646;55.802;37.032;2023-06-26T10:25:23;4.00;;;3.00;;
67514;SDS011;60646;55.802;37.032;2023-06-26T10:28:07;3.47;;;2.63;;
67514;SDS011;60646;55.802;37.032;2023-06-26T10:30:34;4.40;;;2.90;;
67514;SDS011;60646;55.802;37.032;2023-06-26T10:33:02;4.68;;;3.15;;
67514;SDS011;60646;55.802;37.032;2023-06-26T10:35:30;4.43;;;3.47;;
67514;SDS011;60646;55.802;37.032;2023-06-26T10:38:15;4.47;;;2.90;;
67514;SDS011;60646;55.802;37.032;2023-06-26T10:40:47;4.53;;;3.00;;
67514;SDS011;60646;55.802;37.032;2023-06-26T10:43:17;3.92;;;2.90;;
67514;SDS011;60646;55.802;37.032;2023-06-26T10:45:44;3.85;;;2.83;;
67514;SDS011;60646;55.802;37.032;2023-06-26T10:50:55;3.85;;;2.90;;
67514;SDS011;60646;55.802;37.032;2023-06-26T10:55:59;7.78;;;3.22;;
67514;SDS011;60646;55.802;37.032;2023-06-26T11:01:16;4.30;;;3.42;;
67514;SDS011;60646;55.802;37.032;2023-06-26T11:03:48;4.95;;;3.15;;
67514;SDS011;60646;55.802;37.032;2023-06-26T11:06:23;5.70;;;3.65;;
67514;SDS011;60646;55.802;37.032;2023-06-26T11:08:49;3.22;;;2.65;;
67514;SDS011;60646;55.802;37.032;2023-06-26T11:11:21;3.83;;;2.72;;
67514;SDS011;60646;55.802;37.032;2023-06-26T11:16:55;3.47;;;2.95;;
67514;SDS011;60646;55.802;37.032;2023-06-26T11:19:40;3.50;;;2.90;;
67514;SDS011;60646;55.802;37.032;2023-06-26T11:22:29;5.60;;;3.50;;
67514;SDS011;60646;55.802;37.032;2023-06-26T11:24:55;4.28;;;3.33;;
67514;SDS011;60646;55.802;37.032;2023-06-26T11:27:24;4.00;;;3.03;;
67514;SDS011;60646;55.802;37.032;2023-06-26T11:29:55;9.90;;;3.92;;
67514;SDS011;60646;55.802;37.032;2023-06-26T11:35:05;5.28;;;3.15;;
67514;SDS011;60646;55.802;37.032;2023-06-26T11:37:32;3.58;;;3.08;;
67514;SDS011;60646;55.802;37.032;2023-06-26T11:39:58;4.68;;;3.05;;
67514;SDS011;60646;55.802;37.032;2023-06-26T11:42:23;5.05;;;3.45;;
67514;SDS011;60646;55.802;37.032;2023-06-26T11:44:50;6.28;;;3.28;;
67514;SDS011;60646;55.802;37.032;2023-06-26T11:47:18;8.68;;;3.42;;
67514;SDS011;60646;55.802;37.032;2023-06-26T11:49:45;4.72;;;3.30;;
67514;SDS011;60646;55.802;37.032;2023-06-26T11:52:13;4.88;;;3.42;;
67514;SDS011;60646;55.802;37.032;2023-06-26T11:54:41;4.15;;;2.92;;
67514;SDS011;60646;55.802;37.032;2023-06-26T11:57:07;4.30;;;3.20;;
67514;SDS011;60646;55.802;37.032;2023-06-26T11:59:34;3.92;;;2.55;;
67514;SDS011;60646;55.802;37.032;2023-06-26T12:02:04;3.90;;;2.85;;
67514;SDS011;60646;55.802;37.032;2023-06-26T12:04:58;5.53;;;3.25;;
67514;SDS011;60646;55.802;37.032;2023-06-26T12:07:24;3.70;;;2.83;;
67514;SDS011;60646;55.802;37.032;2023-06-26T12:09:50;5.93;;;3.20;;
67514;SDS011;60646;55.802;37.032;2023-06-26T12:12:47;4.20;;;3.30;;
67514;SDS011;60646;55.802;37.032;2023-06-26T12:15:45;3.97;;;3.28;;
67514;SDS011;60646;55.802;37.032;2023-06-26T12:18:11;5.55;;;3.30;;
67514;SDS011;60646;55.802;37.032;2023-06-26T12:20:39;6.82;;;3.20;;
67514;SDS011;60646;55.802;37.032;2023-06-26T12:26:16;5.28;;;3.60;;
67514;SDS011;60646;55.802;37.032;2023-06-26T12:28:44;4.85;;;3.45;;
67514;SDS011;60646;55.802;37.032;2023-06-26T12:31:14;4.30;;;3.20;;
67514;SDS011;60646;55.802;37.032;2023-06-26T12:33:43;5.28;;;3.33;;
67514;SDS011;60646;55.802;37.032;2023-06-26T12:36:15;3.97;;;3.13;;
67514;SDS011;60646;55.802;37.032;2023-06-26T12:38:41;7.07;;;3.47;;
67514;SDS011;60646;55.802;37.032;2023-06-26T12:41:13;4.35;;;3.25;;
67514;SDS011;60646;55.802;37.032;2023-06-26T12:43:40;4.53;;;3.30;;
67514;SDS011;60646;55.802;37.032;2023-06-26T12:49:08;3.70;;;2.97;;
67514;SDS011;60646;55.802;37.032;2023-06-26T12:51:34;4.07;;;2.85;;
67514;SDS011;60646;55.802;37.032;2023-06-26T12:53:59;3.63;;;2.78;;
67514;SDS011;60646;55.802;37.032;2023-06-26T12:56:25;7.97;;;3.13;;
67514;SDS011;60646;55.802;37.032;2023-06-26T12:58:51;4.45;;;2.95;;
67514;SDS011;60646;55.802;37.032;2023-06-26T13:01:35;5.13;;;3.40;;
67514;SDS011;60646;55.802;37.032;2023-06-26T13:04:01;4.40;;;3.10;;
67514;SDS011;60646;55.802;37.032;2023-06-26T13:06:28;4.95;;;3.78;;
67514;SDS011;60646;55.802;37.032;2023-06-26T13:08:54;4.80;;;3.50;;
67514;SDS011;60646;55.802;37.032;2023-06-26T13:11:20;5.65;;;3.90;;
67514;SDS011;60646;55.802;37.032;2023-06-26T13:14:04;3.42;;;2.92;;
67514;SDS011;60646;55.802;37.032;2023-06-26T13:16:30;5.30;;;3.58;;
67514;SDS011;60646;55.802;37.032;2023-06-26T13:18:57;5.85;;;4.22;;
67514;SDS011;60646;55.802;37.032;2023-06-26T13:21:24;6.45;;;3.83;;
67514;SDS011;60646;55.802;37.032;2023-06-26T13:23:50;5.05;;;3.88;;
67514;SDS011;60646;55.802;37.032;2023-06-26T13:26:15;4.97;;;3.78;;
67514;SDS011;60646;55.802;37.032;2023-06-26T13:28:41;5.22;;;3.25;;
67514;SDS011;60646;55.802;37.032;2023-06-26T13:31:07;4.05;;;3.20;;
67514;SDS011;60646;55.802;37.032;2023-06-26T13:33:33;6.55;;;3.40;;
67514;SDS011;60646;55.802;37.032;2023-06-26T13:35:59;6.03;;;3.08;;
67514;SDS011;60646;55.802;37.032;2023-06-26T13:38:25;3.85;;;3.05;;
67514;SDS011;60646;55.802;37.032;2023-06-26T13:40:51;5.63;;;2.90;;
67514;SDS011;60646;55.802;37.032;2023-06-26T13:43:18;4.45;;;3.33;;
67514;SDS011;60646;55.802;37.032;2023-06-26T13:46:21;4.20;;;2.80;;
67514;SDS011;60646;55.802;37.032;2023-06-26T13:48:47;3.80;;;2.95;;
67514;SDS011;60646;55.802;37.032;2023-06-26T13:51:12;3.75;;;2.65;;
67514;SDS011;60646;55.802;37.032;2023-06-26T13:53:38;4.10;;;3.00;;
67514;SDS011;60646;55.802;37.032;2023-06-26T13:56:04;4.25;;;3.08;;
67514;SDS011;60646;55.802;37.032;2023-06-26T13:58:30;4.50;;;2.90;;
67514;SDS011;60646;55.802;37.032;2023-06-26T14:00:58;4.38;;;3.08;;
67514;SDS011;60646;55.802;37.032;2023-06-26T14:03:41;3.55;;;2.67;;
67514;SDS011;60646;55.802;37.032;2023-06-26T14:06:07;7.28;;;4.25;;
67514;SDS011;60646;55.802;37.032;2023-06-26T14:08:33;7.38;;;4.75;;
67514;SDS011;60646;55.802;37.032;2023-06-26T14:11:17;5.47;;;3.70;;
67514;SDS011;60646;55.802;37.032;2023-06-26T14:13:43;5.95;;;3.65;;
67514;SDS011;60646;55.802;37.032;2023-06-26T14:16:09;4.45;;;2.92;;
67514;SDS011;60646;55.802;37.032;2023-06-26T14:18:35;4.68;;;3.50;;
67514;SDS011;60646;55.802;37.032;2023-06-26T14:21:00;4.80;;;3.22;;
67514;SDS011;60646;55.802;37.032;2023-06-26T14:26:13;3.30;;;2.55;;
67514;SDS011;60646;55.802;37.032;2023-06-26T14:28:39;4.45;;;3.00;;
67514;SDS011;60646;55.802;37.032;2023-06-26T14:31:25;4.10;;;3.33;;
67514;SDS011;60646;55.802;37.032;2023-06-26T14:33:51;4.45;;;3.40;;
67514;SDS011;60646;55.802;37.032;2023-06-26T14:36:16;3.40;;;2.80;;
67514;SDS011;60646;55.802;37.032;2023-06-26T14:38:42;4.50;;;3.10;;
67514;SDS011;60646;55.802;37.032;2023-06-26T14:41:08;8.30;;;3.10;;
67514;SDS011;60646;55.802;37.032;2023-06-26T14:43:34;10.13;;;3.13;;
67514;SDS011;60646;55.802;37.032;2023-06-26T14:46:18;5.32;;;3.70;;
67514;SDS011;60646;55.802;37.032;2023-06-26T14:48:44;5.88;;;3.45;;
67514;SDS011;60646;55.802;37.032;2023-06-26T14:51:09;3.47;;;2.78;;
67514;SDS011;60646;55.802;37.032;2023-06-26T14:53:35;4.13;;;2.85;;
67514;SDS011;60646;55.802;37.032;2023-06-26T14:56:01;4.75;;;3.10;;
67514;SDS011;60646;55.802;37.032;2023-06-26T14:58:28;5.20;;;2.80;;
67514;SDS011;60646;55.802;37.032;2023-06-26T15:00:53;4.22;;;2.95;;
67514;SDS011;60646;55.802;37.032;2023-06-26T15:03:19;5.00;;;3.53;;
67514;SDS011;60646;55.802;37.032;2023-06-26T15:05:45;4.72;;;3.28;;
67514;SDS011;60646;55.802;37.032;2023-06-26T15:08:11;4.00;;;3.00;;
67514;SDS011;60646;55.802;37.032;2023-06-26T15:10:36;7.10;;;4.15;;
67514;SDS011;60646;55.802;37.032;2023-06-26T15:13:02;7.78;;;5.00;;
67514;SDS011;60646;55.802;37.032;2023-06-26T15:15:28;6.95;;;4.45;;
67514;SDS011;60646;55.802;37.032;2023-06-26T15:17:53;9.95;;;5.05;;
67514;SDS011;60646;55.802;37.032;2023-06-26T15:20:19;13.85;;;5.30;;
67514;SDS011;60646;55.802;37.032;2023-06-26T15:22:45;9.73;;;5.22;;
67514;SDS011;60646;55.802;37.032;2023-06-26T15:25:10;14.60;;;6.90;;
67514;SDS011;60646;55.802;37.032;2023-06-26T15:30:21;10.30;;;4.88;;
67514;SDS011;60646;55.802;37.032;2023-06-26T15:33:05;10.68;;;4.63;;
67514;SDS011;60646;55.802;37.032;2023-06-26T15:35:31;7.95;;;4.30;;
67514;SDS011;60646;55.802;37.032;2023-06-26T15:37:57;6.57;;;3.63;;
67514;SDS011;60646;55.802;37.032;2023-06-26T15:40:23;6.03;;;3.65;;
67514;SDS011;60646;55.802;37.032;2023-06-26T15:42:49;5.15;;;3.28;;
67514;SDS011;60646;55.802;37.032;2023-06-26T15:45:16;4.47;;;3.20;;